sensor_id;sensor_type;location;lat;lon;timestamp;P1;durP1;ratioP1;P2;durP2;ratioP2
3415;SDS011;1721;51.238;9.562;2023-06-14T00:00:20;7.10;;;2.57;;
3415;SDS011;1721;51.238;9.562;2023-06-14T00:02:46;6.93;;;2.80;;
3415;SDS011;1721;51.238;9.562;2023-06-14T00:05:13;9.07;;;2.80;;
3415;SDS011;1721;51.238;9.562;2023-06-14T00:07:41;6.20;;;2.90;;
3415;SDS011;1721;51.238;9.562;2023-06-14T00:10:14;8.18;;;3.15;;
3415;SDS011;1721;51.238;9.562;2023-06-14T00:12:40;6.72;;;3.03;;
3415;SDS011;1721;51.238;9.562;2023-06-14T00:15:07;7.32;;;2.65;;
3415;SDS011;1721;51.238;9.562;2023-06-14T00:17:34;7.38;;;2.78;;
3415;SDS011;1721;51.238;9.562;2023-06-14T00:20:01;9.60;;;2.63;;
3415;SDS011;1721;51.238;9.562;2023-06-14T00:22:30;11.65;;;2.22;;
3415;SDS011;1721;51.238;9.562;2023-06-14T00:24:56;9.05;;;2.80;;
3415;SDS011;1721;51.238;9.562;2023-06-14T00:27:23;6.17;;;2.83;;
3415;SDS011;1721;51.238;9.562;2023-06-14T00:29:51;5.82;;;2.58;;
3415;SDS011;1721;51.238;9.562;2023-06-14T00:32:17;6.05;;;2.53;;
3415;SDS011;1721;51.238;9.562;2023-06-14T00:34:43;5.60;;;2.78;;
3415;SDS011;1721;51.238;9.562;2023-06-14T00:37:09;7.47;;;2.83;;
3415;SDS011;1721;51.238;9.562;2023-06-14T00:39:34;7.03;;;3.00;;
3415;SDS011;1721;51.238;9.562;2023-06-14T00:42:00;7.47;;;2.40;;
3415;SDS011;1721;51.238;9.562;2023-06-14T00:44:27;9.83;;;3.00;;
3415;SDS011;1721;51.238;9.562;2023-06-14T00:46:53;7.00;;;2.95;;
3415;SDS011;1721;51.238;9.562;2023-06-14T00:49:19;9.05;;;3.03;;
3415;SDS011;1721;51.238;9.562;2023-06-14T00:51:45;6.70;;;2.50;;
3415;SDS011;1721;51.238;9.562;2023-06-14T00:54:11;7.93;;;2.90;;
3415;SDS011;1721;51.238;9.562;2023-06-14T00:56:36;6.43;;;2.77;;
3415;SDS011;1721;51.238;9.562;2023-06-14T00:59:03;8.53;;;3.03;;
3415;SDS011;1721;51.238;9.562;2023-06-14T01:01:32;9.02;;;3.42;;
3415;SDS011;1721;51.238;9.562;2023-06-14T01:04:00;5.65;;;2.40;;
3415;SDS011;1721;51.238;9.562;2023-06-14T01:06:45;8.30;;;2.80;;
3415;SDS011;1721;51.238;9.562;2023-06-14T01:12:05;8.20;;;2.70;;
3415;SDS011;1721;51.238;9.562;2023-06-14T01:14:39;7.95;;;2.97;;
3415;SDS011;1721;51.238;9.562;2023-06-14T01:17:07;7.90;;;2.83;;
3415;SDS011;1721;51.238;9.562;2023-06-14T01:19:44;7.50;;;2.80;;
3415;SDS011;1721;51.238;9.562;2023-06-14T01:22:10;6.13;;;2.70;;
3415;SDS011;1721;51.238;9.562;2023-06-14T01:24:36;9.65;;;2.97;;
3415;SDS011;1721;51.238;9.562;2023-06-14T01:27:04;10.63;;;3.08;;
3415;SDS011;1721;51.238;9.562;2023-06-14T01:29:30;6.30;;;2.92;;
3415;SDS011;1721;51.238;9.562;2023-06-14T01:31:58;7.07;;;3.15;;
3415;SDS011;1721;51.238;9.562;2023-06-14T01:34:26;8.90;;;2.88;;
3415;SDS011;1721;51.238;9.562;2023-06-14T01:36:52;7.57;;;3.30;;
3415;SDS011;1721;51.238;9.562;2023-06-14T01:39:21;8.93;;;2.90;;
3415;SDS011;1721;51.238;9.562;2023-06-14T01:41:49;8.30;;;3.40;;
3415;SDS011;1721;51.238;9.562;2023-06-14T01:44:16;5.78;;;2.60;;
3415;SDS011;1721;51.238;9.562;2023-06-14T01:46:43;11.80;;;3.05;;
3415;SDS011;1721;51.238;9.562;2023-06-14T01:49:10;8.35;;;2.95;;
3415;SDS011;1721;51.238;9.562;2023-06-14T01:51:36;10.10;;;2.83;;
3415;SDS011;1721;51.238;9.562;2023-06-14T01:54:03;7.93;;;2.97;;
3415;SDS011;1721;51.238;9.562;2023-06-14T01:56:28;7.13;;;2.90;;
3415;SDS011;1721;51.238;9.562;2023-06-14T01:58:55;6.57;;;3.10;;
3415;SDS011;1721;51.238;9.562;2023-06-14T02:01:21;5.50;;;2.53;;
3415;SDS011;1721;51.238;9.562;2023-06-14T02:03:47;8.20;;;3.20;;
3415;SDS011;1721;51.238;9.562;2023-06-14T02:06:14;6.80;;;2.83;;
3415;SDS011;1721;51.238;9.562;2023-06-14T02:08:40;6.20;;;2.45;;
3415;SDS011;1721;51.238;9.562;2023-06-14T02:11:07;6.55;;;3.00;;
3415;SDS011;1721;51.238;9.562;2023-06-14T02:13:33;5.10;;;2.20;;
3415;SDS011;1721;51.238;9.562;2023-06-14T02:15:59;9.30;;;2.78;;
3415;SDS011;1721;51.238;9.562;2023-06-14T02:18:25;8.20;;;3.10;;
3415;SDS011;1721;51.238;9.562;2023-06-14T02:20:51;7.60;;;3.37;;
3415;SDS011;1721;51.238;9.562;2023-06-14T02:23:17;16.40;;;3.00;;
3415;SDS011;1721;51.238;9.562;2023-06-14T02:25:42;7.43;;;2.57;;
3415;SDS011;1721;51.238;9.562;2023-06-14T02:28:09;5.80;;;2.58;;
3415;SDS011;1721;51.238;9.562;2023-06-14T02:30:36;6.73;;;2.90;;
3415;SDS011;1721;51.238;9.562;2023-06-14T02:33:02;10.57;;;3.05;;
3415;SDS011;1721;51.238;9.562;2023-06-14T02:35:29;7.55;;;2.70;;
3415;SDS011;1721;51.238;9.562;2023-06-14T02:37:55;7.93;;;2.42;;
3415;SDS011;1721;51.238;9.562;2023-06-14T02:40:21;9.30;;;2.97;;
3415;SDS011;1721;51.238;9.562;2023-06-14T02:42:47;5.90;;;2.60;;
3415;SDS011;1721;51.238;9.562;2023-06-14T02:45:12;7.87;;;2.80;;
3415;SDS011;1721;51.238;9.562;2023-06-14T02:47:38;9.90;;;2.70;;
3415;SDS011;1721;51.238;9.562;2023-06-14T02:50:05;6.80;;;2.57;;
3415;SDS011;1721;51.238;9.562;2023-06-14T02:52:31;7.85;;;3.22;;
3415;SDS011;1721;51.238;9.562;2023-06-14T02:54:58;10.77;;;2.70;;
3415;SDS011;1721;51.238;9.562;2023-06-14T02:57:24;6.47;;;2.90;;
3415;SDS011;1721;51.238;9.562;2023-06-14T02:59:49;7.30;;;3.13;;
3415;SDS011;1721;51.238;9.562;2023-06-14T03:02:15;10.70;;;3.03;;
3415;SDS011;1721;51.238;9.562;2023-06-14T03:04:41;12.33;;;3.07;;
3415;SDS011;1721;51.238;9.562;2023-06-14T03:07:09;8.98;;;3.15;;
3415;SDS011;1721;51.238;9.562;2023-06-14T03:09:35;5.50;;;2.80;;
3415;SDS011;1721;51.238;9.562;2023-06-14T03:12:05;6.30;;;2.92;;
3415;SDS011;1721;51.238;9.562;2023-06-14T03:14:35;5.88;;;2.80;;
3415;SDS011;1721;51.238;9.562;2023-06-14T03:17:01;6.13;;;2.93;;
3415;SDS011;1721;51.238;9.562;2023-06-14T03:19:27;8.88;;;2.78;;
3415;SDS011;1721;51.238;9.562;2023-06-14T03:21:52;6.80;;;3.47;;
3415;SDS011;1721;51.238;9.562;2023-06-14T03:24:22;6.32;;;2.65;;
3415;SDS011;1721;51.238;9.562;2023-06-14T03:26:48;7.60;;;3.10;;
3415;SDS011;1721;51.238;9.562;2023-06-14T03:29:14;8.80;;;3.30;;
3415;SDS011;1721;51.238;9.562;2023-06-14T03:31:56;7.47;;;2.70;;
3415;SDS011;1721;51.238;9.562;2023-06-14T03:34:27;6.70;;;3.03;;
3415;SDS011;1721;51.238;9.562;2023-06-14T03:36:52;10.10;;;2.92;;
3415;SDS011;1721;51.238;9.562;2023-06-14T03:39:18;10.10;;;2.87;;
3415;SDS011;1721;51.238;9.562;2023-06-14T03:41:44;6.75;;;3.00;;
3415;SDS011;1721;51.238;9.562;2023-06-14T03:44:10;7.80;;;3.00;;
3415;SDS011;1721;51.238;9.562;2023-06-14T03:46:36;6.73;;;3.10;;
3415;SDS011;1721;51.238;9.562;2023-06-14T03:49:01;6.00;;;2.80;;
3415;SDS011;1721;51.238;9.562;2023-06-14T03:51:27;9.98;;;3.10;;
3415;SDS011;1721;51.238;9.562;2023-06-14T03:53:54;7.25;;;3.30;;
3415;SDS011;1721;51.238;9.562;2023-06-14T03:56:20;9.80;;;3.15;;
3415;SDS011;1721;51.238;9.562;2023-06-14T03:58:46;9.53;;;3.07;;
3415;SDS011;1721;51.238;9.562;2023-06-14T04:01:13;6.73;;;3.10;;
3415;SDS011;1721;51.238;9.562;2023-06-14T04:03:39;5.80;;;2.67;;
3415;SDS011;1721;51.238;9.562;2023-06-14T04:06:06;7.72;;;3.10;;
3415;SDS011;1721;51.238;9.562;2023-06-14T04:08:32;7.93;;;3.35;;
3415;SDS011;1721;51.238;9.562;2023-06-14T04:10:59;6.82;;;2.72;;
3415;SDS011;1721;51.238;9.562;2023-06-14T04:13:25;5.97;;;2.87;;
3415;SDS011;1721;51.238;9.562;2023-06-14T04:15:50;7.60;;;3.30;;
3415;SDS011;1721;51.238;9.562;2023-06-14T04:18:16;7.10;;;3.17;;
3415;SDS011;1721;51.238;9.562;2023-06-14T04:20:43;6.65;;;3.08;;
3415;SDS011;1721;51.238;9.562;2023-06-14T04:23:12;7.90;;;2.90;;
3415;SDS011;1721;51.238;9.562;2023-06-14T04:25:39;10.07;;;3.40;;
3415;SDS011;1721;51.238;9.562;2023-06-14T04:28:05;7.30;;;3.28;;
3415;SDS011;1721;51.238;9.562;2023-06-14T04:30:33;11.85;;;2.45;;
3415;SDS011;1721;51.238;9.562;2023-06-14T04:33:00;4.95;;;2.30;;
3415;SDS011;1721;51.238;9.562;2023-06-14T04:35:25;4.30;;;2.10;;
3415;SDS011;1721;51.238;9.562;2023-06-14T04:37:53;4.35;;;2.03;;
3415;SDS011;1721;51.238;9.562;2023-06-14T04:40:21;6.95;;;2.58;;
3415;SDS011;1721;51.238;9.562;2023-06-14T04:42:46;8.05;;;2.08;;
3415;SDS011;1721;51.238;9.562;2023-06-14T04:45:13;6.55;;;2.05;;
3415;SDS011;1721;51.238;9.562;2023-06-14T04:47:40;8.77;;;2.70;;
3415;SDS011;1721;51.238;9.562;2023-06-14T04:50:07;5.85;;;2.10;;
3415;SDS011;1721;51.238;9.562;2023-06-14T04:52:33;6.07;;;2.30;;
3415;SDS011;1721;51.238;9.562;2023-06-14T04:55:00;4.80;;;1.92;;
3415;SDS011;1721;51.238;9.562;2023-06-14T04:57:26;7.00;;;2.13;;
3415;SDS011;1721;51.238;9.562;2023-06-14T04:59:52;4.73;;;2.03;;
3415;SDS011;1721;51.238;9.562;2023-06-14T05:02:22;5.13;;;1.80;;
3415;SDS011;1721;51.238;9.562;2023-06-14T05:04:49;6.00;;;2.33;;
3415;SDS011;1721;51.238;9.562;2023-06-14T05:07:16;5.13;;;2.20;;
3415;SDS011;1721;51.238;9.562;2023-06-14T05:09:44;5.10;;;2.37;;
3415;SDS011;1721;51.238;9.562;2023-06-14T05:12:10;10.50;;;2.10;;
3415;SDS011;1721;51.238;9.562;2023-06-14T05:14:35;7.33;;;2.60;;
3415;SDS011;1721;51.238;9.562;2023-06-14T05:17:01;5.73;;;2.53;;
3415;SDS011;1721;51.238;9.562;2023-06-14T05:19:27;6.70;;;2.30;;
3415;SDS011;1721;51.238;9.562;2023-06-14T05:21:53;6.20;;;2.33;;
3415;SDS011;1721;51.238;9.562;2023-06-14T05:24:19;4.63;;;1.90;;
3415;SDS011;1721;51.238;9.562;2023-06-14T05:26:45;8.07;;;2.40;;
3415;SDS011;1721;51.238;9.562;2023-06-14T05:29:11;4.67;;;2.00;;
3415;SDS011;1721;51.238;9.562;2023-06-14T05:31:36;7.47;;;1.93;;
3415;SDS011;1721;51.238;9.562;2023-06-14T05:34:05;10.00;;;1.90;;
3415;SDS011;1721;51.238;9.562;2023-06-14T05:36:31;5.60;;;2.10;;
3415;SDS011;1721;51.238;9.562;2023-06-14T05:38:57;5.90;;;1.90;;
3415;SDS011;1721;51.238;9.562;2023-06-14T05:41:27;4.83;;;2.13;;
3415;SDS011;1721;51.238;9.562;2023-06-14T05:43:54;11.40;;;2.30;;
3415;SDS011;1721;51.238;9.562;2023-06-14T05:46:20;7.37;;;1.97;;
3415;SDS011;1721;51.238;9.562;2023-06-14T05:48:49;5.40;;;2.07;;
3415;SDS011;1721;51.238;9.562;2023-06-14T05:51:16;4.90;;;2.00;;
3415;SDS011;1721;51.238;9.562;2023-06-14T05:53:44;6.50;;;2.50;;
3415;SDS011;1721;51.238;9.562;2023-06-14T05:56:11;5.67;;;2.00;;
3415;SDS011;1721;51.238;9.562;2023-06-14T05:58:36;10.40;;;2.10;;
3415;SDS011;1721;51.238;9.562;2023-06-14T06:01:02;5.37;;;1.80;;
3415;SDS011;1721;51.238;9.562;2023-06-14T06:03:28;11.43;;;2.73;;
3415;SDS011;1721;51.238;9.562;2023-06-14T06:05:57;6.93;;;2.37;;
3415;SDS011;1721;51.238;9.562;2023-06-14T06:08:23;8.00;;;2.60;;
3415;SDS011;1721;51.238;9.562;2023-06-14T06:10:48;6.10;;;2.60;;
3415;SDS011;1721;51.238;9.562;2023-06-14T06:13:14;11.43;;;2.80;;
3415;SDS011;1721;51.238;9.562;2023-06-14T06:15:41;7.33;;;2.43;;
3415;SDS011;1721;51.238;9.562;2023-06-14T06:18:08;16.67;;;3.30;;
3415;SDS011;1721;51.238;9.562;2023-06-14T06:20:33;9.53;;;4.13;;
3415;SDS011;1721;51.238;9.562;2023-06-14T06:22:59;10.10;;;3.77;;
3415;SDS011;1721;51.238;9.562;2023-06-14T06:25:25;7.13;;;3.03;;
3415;SDS011;1721;51.238;9.562;2023-06-14T06:27:56;25.50;;;2.67;;
3415;SDS011;1721;51.238;9.562;2023-06-14T06:30:22;5.67;;;2.47;;
3415;SDS011;1721;51.238;9.562;2023-06-14T06:32:48;7.13;;;2.77;;
3415;SDS011;1721;51.238;9.562;2023-06-14T06:35:13;5.33;;;2.17;;
3415;SDS011;1721;51.238;9.562;2023-06-14T06:37:41;6.30;;;2.60;;
3415;SDS011;1721;51.238;9.562;2023-06-14T06:40:07;7.00;;;3.00;;
3415;SDS011;1721;51.238;9.562;2023-06-14T06:42:33;6.43;;;2.80;;
3415;SDS011;1721;51.238;9.562;2023-06-14T06:44:59;8.30;;;2.87;;
3415;SDS011;1721;51.238;9.562;2023-06-14T06:47:25;5.40;;;2.40;;
3415;SDS011;1721;51.238;9.562;2023-06-14T06:49:51;5.57;;;2.40;;
3415;SDS011;1721;51.238;9.562;2023-06-14T06:52:16;6.90;;;2.63;;
3415;SDS011;1721;51.238;9.562;2023-06-14T06:54:42;7.70;;;2.83;;
3415;SDS011;1721;51.238;9.562;2023-06-14T06:57:07;7.80;;;2.97;;
3415;SDS011;1721;51.238;9.562;2023-06-14T06:59:33;6.10;;;2.83;;
3415;SDS011;1721;51.238;9.562;2023-06-14T07:01:59;8.17;;;3.03;;
3415;SDS011;1721;51.238;9.562;2023-06-14T07:04:25;9.90;;;3.73;;
3415;SDS011;1721;51.238;9.562;2023-06-14T07:06:51;10.50;;;3.77;;
3415;SDS011;1721;51.238;9.562;2023-06-14T07:09:16;7.47;;;3.10;;
3415;SDS011;1721;51.238;9.562;2023-06-14T07:11:43;6.50;;;2.80;;
3415;SDS011;1721;51.238;9.562;2023-06-14T07:14:10;6.43;;;2.87;;
3415;SDS011;1721;51.238;9.562;2023-06-14T07:16:36;8.90;;;3.33;;
3415;SDS011;1721;51.238;9.562;2023-06-14T07:19:02;10.23;;;3.33;;
3415;SDS011;1721;51.238;9.562;2023-06-14T07:21:28;6.57;;;3.17;;
3415;SDS011;1721;51.238;9.562;2023-06-14T07:23:53;6.13;;;2.77;;
3415;SDS011;1721;51.238;9.562;2023-06-14T07:26:20;7.43;;;3.00;;
3415;SDS011;1721;51.238;9.562;2023-06-14T07:28:48;12.23;;;3.43;;
3415;SDS011;1721;51.238;9.562;2023-06-14T07:31:14;9.40;;;3.40;;
3415;SDS011;1721;51.238;9.562;2023-06-14T07:33:41;7.40;;;3.50;;
3415;SDS011;1721;51.238;9.562;2023-06-14T07:36:07;12.60;;;3.37;;
3415;SDS011;1721;51.238;9.562;2023-06-14T07:38:33;12.50;;;3.30;;
3415;SDS011;1721;51.238;9.562;2023-06-14T07:40:59;11.97;;;3.17;;
3415;SDS011;1721;51.238;9.562;2023-06-14T07:43:25;7.90;;;2.93;;
3415;SDS011;1721;51.238;9.562;2023-06-14T07:45:51;5.70;;;3.00;;
3415;SDS011;1721;51.238;9.562;2023-06-14T07:48:16;5.10;;;2.40;;
3415;SDS011;1721;51.238;9.562;2023-06-14T07:50:43;6.30;;;2.70;;
3415;SDS011;1721;51.238;9.562;2023-06-14T07:53:09;8.33;;;3.83;;
3415;SDS011;1721;51.238;9.562;2023-06-14T07:55:35;7.37;;;2.90;;
3415;SDS011;1721;51.238;9.562;2023-06-14T07:58:03;6.93;;;3.10;;
3415;SDS011;1721;51.238;9.562;2023-06-14T08:00:29;8.10;;;3.07;;
3415;SDS011;1721;51.238;9.562;2023-06-14T08:02:54;6.17;;;3.10;;
3415;SDS011;1721;51.238;9.562;2023-06-14T08:05:24;5.73;;;2.60;;
3415;SDS011;1721;51.238;9.562;2023-06-14T08:07:50;9.60;;;2.93;;
3415;SDS011;1721;51.238;9.562;2023-06-14T08:10:18;7.77;;;2.93;;
3415;SDS011;1721;51.238;9.562;2023-06-14T08:12:43;12.20;;;2.90;;
3415;SDS011;1721;51.238;9.562;2023-06-14T08:15:09;8.93;;;2.93;;
3415;SDS011;1721;51.238;9.562;2023-06-14T08:17:35;9.60;;;2.77;;
3415;SDS011;1721;51.238;9.562;2023-06-14T08:20:01;5.27;;;2.60;;
3415;SDS011;1721;51.238;9.562;2023-06-14T08:22:28;8.20;;;2.57;;
3415;SDS011;1721;51.238;9.562;2023-06-14T08:24:57;11.43;;;2.60;;
3415;SDS011;1721;51.238;9.562;2023-06-14T08:27:23;11.60;;;2.83;;
3415;SDS011;1721;51.238;9.562;2023-06-14T08:29:48;7.00;;;3.43;;
3415;SDS011;1721;51.238;9.562;2023-06-14T08:32:16;6.00;;;2.83;;
3415;SDS011;1721;51.238;9.562;2023-06-14T08:34:41;5.93;;;2.50;;
3415;SDS011;1721;51.238;9.562;2023-06-14T08:37:08;6.67;;;3.30;;
3415;SDS011;1721;51.238;9.562;2023-06-14T08:39:33;7.80;;;2.67;;
3415;SDS011;1721;51.238;9.562;2023-06-14T08:41:59;6.20;;;2.97;;
3415;SDS011;1721;51.238;9.562;2023-06-14T08:44:28;6.37;;;3.20;;
3415;SDS011;1721;51.238;9.562;2023-06-14T08:46:55;6.60;;;2.70;;
3415;SDS011;1721;51.238;9.562;2023-06-14T08:49:23;7.27;;;3.03;;
3415;SDS011;1721;51.238;9.562;2023-06-14T08:51:51;6.43;;;3.00;;
3415;SDS011;1721;51.238;9.562;2023-06-14T08:54:25;6.10;;;2.70;;
3415;SDS011;1721;51.238;9.562;2023-06-14T08:57:04;8.60;;;3.23;;
3415;SDS011;1721;51.238;9.562;2023-06-14T08:59:32;10.70;;;2.63;;
3415;SDS011;1721;51.238;9.562;2023-06-14T09:02:04;6.00;;;2.80;;
3415;SDS011;1721;51.238;9.562;2023-06-14T09:04:31;7.00;;;2.80;;
3415;SDS011;1721;51.238;9.562;2023-06-14T09:06:58;7.43;;;3.10;;
3415;SDS011;1721;51.238;9.562;2023-06-14T09:09:24;7.60;;;3.00;;
3415;SDS011;1721;51.238;9.562;2023-06-14T09:11:50;6.33;;;2.60;;
3415;SDS011;1721;51.238;9.562;2023-06-14T09:14:18;5.27;;;2.37;;
3415;SDS011;1721;51.238;9.562;2023-06-14T09:16:44;5.50;;;2.67;;
3415;SDS011;1721;51.238;9.562;2023-06-14T09:19:13;6.83;;;2.50;;
3415;SDS011;1721;51.238;9.562;2023-06-14T09:21:49;6.77;;;2.33;;
3415;SDS011;1721;51.238;9.562;2023-06-14T09:24:17;7.10;;;2.93;;
3415;SDS011;1721;51.238;9.562;2023-06-14T09:26:46;8.93;;;3.30;;
3415;SDS011;1721;51.238;9.562;2023-06-14T09:29:12;15.67;;;3.10;;
3415;SDS011;1721;51.238;9.562;2023-06-14T09:31:37;7.07;;;3.50;;
3415;SDS011;1721;51.238;9.562;2023-06-14T09:34:03;9.83;;;3.53;;
3415;SDS011;1721;51.238;9.562;2023-06-14T09:36:30;9.33;;;3.00;;
3415;SDS011;1721;51.238;9.562;2023-06-14T09:38:58;5.77;;;2.70;;
3415;SDS011;1721;51.238;9.562;2023-06-14T09:41:32;7.03;;;3.00;;
3415;SDS011;1721;51.238;9.562;2023-06-14T09:44:05;9.13;;;2.87;;
3415;SDS011;1721;51.238;9.562;2023-06-14T09:46:33;7.10;;;3.03;;
3415;SDS011;1721;51.238;9.562;2023-06-14T09:48:59;7.60;;;3.27;;
3415;SDS011;1721;51.238;9.562;2023-06-14T09:51:26;5.90;;;3.00;;
3415;SDS011;1721;51.238;9.562;2023-06-14T09:53:53;6.10;;;3.07;;
3415;SDS011;1721;51.238;9.562;2023-06-14T09:56:44;14.37;;;3.37;;
3415;SDS011;1721;51.238;9.562;2023-06-14T09:59:10;8.77;;;3.00;;
3415;SDS011;1721;51.238;9.562;2023-06-14T10:01:44;9.37;;;3.40;;
3415;SDS011;1721;51.238;9.562;2023-06-14T10:04:11;5.70;;;3.10;;
3415;SDS011;1721;51.238;9.562;2023-06-14T10:06:39;6.00;;;2.80;;
3415;SDS011;1721;51.238;9.562;2023-06-14T10:09:09;7.87;;;3.97;;
3415;SDS011;1721;51.238;9.562;2023-06-14T10:11:36;14.40;;;3.47;;
3415;SDS011;1721;51.238;9.562;2023-06-14T10:14:08;5.67;;;2.70;;
3415;SDS011;1721;51.238;9.562;2023-06-14T10:16:37;4.67;;;2.40;;
3415;SDS011;1721;51.238;9.562;2023-06-14T10:21:51;5.37;;;2.90;;
3415;SDS011;1721;51.238;9.562;2023-06-14T10:24:34;5.97;;;2.77;;
3415;SDS011;1721;51.238;9.562;2023-06-14T10:27:10;9.80;;;3.20;;
3415;SDS011;1721;51.238;9.562;2023-06-14T10:32:20;6.17;;;2.67;;
3415;SDS011;1721;51.238;9.562;2023-06-14T10:34:51;11.40;;;2.60;;
3415;SDS011;1721;51.238;9.562;2023-06-14T10:37:20;7.40;;;2.97;;
3415;SDS011;1721;51.238;9.562;2023-06-14T10:39:46;6.23;;;2.50;;
3415;SDS011;1721;51.238;9.562;2023-06-14T10:42:12;6.83;;;3.10;;
3415;SDS011;1721;51.238;9.562;2023-06-14T10:44:42;7.03;;;3.30;;
3415;SDS011;1721;51.238;9.562;2023-06-14T10:50:09;8.20;;;3.40;;
3415;SDS011;1721;51.238;9.562;2023-06-14T10:52:40;7.00;;;3.37;;
3415;SDS011;1721;51.238;9.562;2023-06-14T11:00:11;9.43;;;2.80;;
3415;SDS011;1721;51.238;9.562;2023-06-14T11:05:50;5.57;;;2.77;;
3415;SDS011;1721;51.238;9.562;2023-06-14T11:10:59;9.60;;;3.57;;
3415;SDS011;1721;51.238;9.562;2023-06-14T11:13:25;10.10;;;3.40;;
3415;SDS011;1721;51.238;9.562;2023-06-14T11:15:51;5.50;;;2.80;;
3415;SDS011;1721;51.238;9.562;2023-06-14T11:18:22;9.07;;;3.10;;
3415;SDS011;1721;51.238;9.562;2023-06-14T11:20:52;6.03;;;2.70;;
3415;SDS011;1721;51.238;9.562;2023-06-14T11:23:18;5.80;;;2.70;;
3415;SDS011;1721;51.238;9.562;2023-06-14T11:25:53;6.27;;;3.07;;
3415;SDS011;1721;51.238;9.562;2023-06-14T11:28:19;7.03;;;3.17;;
3415;SDS011;1721;51.238;9.562;2023-06-14T11:30:47;12.40;;;3.23;;
3415;SDS011;1721;51.238;9.562;2023-06-14T11:33:17;6.13;;;3.20;;
3415;SDS011;1721;51.238;9.562;2023-06-14T11:35:46;6.20;;;3.20;;
3415;SDS011;1721;51.238;9.562;2023-06-14T11:38:12;8.20;;;3.00;;
3415;SDS011;1721;51.238;9.562;2023-06-14T11:40:38;6.00;;;3.23;;
3415;SDS011;1721;51.238;9.562;2023-06-14T11:43:04;7.87;;;3.33;;
3415;SDS011;1721;51.238;9.562;2023-06-14T11:45:30;5.03;;;2.57;;
3415;SDS011;1721;51.238;9.562;2023-06-14T11:47:56;6.90;;;2.70;;
3415;SDS011;1721;51.238;9.562;2023-06-14T11:50:25;7.40;;;3.10;;
3415;SDS011;1721;51.238;9.562;2023-06-14T11:52:53;7.63;;;3.10;;
3415;SDS011;1721;51.238;9.562;2023-06-14T11:55:22;5.70;;;2.70;;
3415;SDS011;1721;51.238;9.562;2023-06-14T11:57:49;7.37;;;2.80;;
3415;SDS011;1721;51.238;9.562;2023-06-14T12:00:15;11.60;;;2.70;;
3415;SDS011;1721;51.238;9.562;2023-06-14T12:02:42;5.83;;;2.43;;
3415;SDS011;1721;51.238;9.562;2023-06-14T12:05:08;5.43;;;2.50;;
3415;SDS011;1721;51.238;9.562;2023-06-14T12:07:37;9.80;;;2.80;;
3415;SDS011;1721;51.238;9.562;2023-06-14T12:10:04;6.80;;;2.90;;
3415;SDS011;1721;51.238;9.562;2023-06-14T12:12:35;9.80;;;3.17;;
3415;SDS011;1721;51.238;9.562;2023-06-14T12:15:04;6.90;;;3.60;;
3415;SDS011;1721;51.238;9.562;2023-06-14T12:17:33;9.87;;;4.90;;
3415;SDS011;1721;51.238;9.562;2023-06-14T12:20:05;9.23;;;3.50;;
3415;SDS011;1721;51.238;9.562;2023-06-14T12:25:27;7.90;;;3.07;;
3415;SDS011;1721;51.238;9.562;2023-06-14T12:27:57;10.13;;;4.10;;
3415;SDS011;1721;51.238;9.562;2023-06-14T12:30:23;7.17;;;3.80;;
3415;SDS011;1721;51.238;9.562;2023-06-14T12:32:49;15.07;;;4.50;;
3415;SDS011;1721;51.238;9.562;2023-06-14T12:35:16;7.93;;;3.10;;
3415;SDS011;1721;51.238;9.562;2023-06-14T12:37:43;5.70;;;2.53;;
3415;SDS011;1721;51.238;9.562;2023-06-14T12:40:09;6.43;;;2.90;;
3415;SDS011;1721;51.238;9.562;2023-06-14T12:42:36;5.93;;;2.43;;
3415;SDS011;1721;51.238;9.562;2023-06-14T12:45:02;9.80;;;3.80;;
3415;SDS011;1721;51.238;9.562;2023-06-14T12:47:28;10.60;;;2.90;;
3415;SDS011;1721;51.238;9.562;2023-06-14T12:49:53;7.47;;;2.50;;
3415;SDS011;1721;51.238;9.562;2023-06-14T12:52:19;6.90;;;2.60;;
3415;SDS011;1721;51.238;9.562;2023-06-14T12:54:44;5.10;;;2.47;;
3415;SDS011;1721;51.238;9.562;2023-06-14T12:57:10;5.50;;;2.23;;
3415;SDS011;1721;51.238;9.562;2023-06-14T12:59:36;6.93;;;2.40;;
3415;SDS011;1721;51.238;9.562;2023-06-14T13:02:14;6.80;;;2.80;;
3415;SDS011;1721;51.238;9.562;2023-06-14T13:04:41;5.50;;;2.20;;
3415;SDS011;1721;51.238;9.562;2023-06-14T13:07:07;8.87;;;2.70;;
3415;SDS011;1721;51.238;9.562;2023-06-14T13:09:32;7.13;;;3.40;;
3415;SDS011;1721;51.238;9.562;2023-06-14T13:11:58;9.43;;;3.97;;
3415;SDS011;1721;51.238;9.562;2023-06-14T13:14:23;7.23;;;2.93;;
3415;SDS011;1721;51.238;9.562;2023-06-14T13:16:49;11.43;;;3.27;;
3415;SDS011;1721;51.238;9.562;2023-06-14T13:19:15;6.43;;;2.60;;
3415;SDS011;1721;51.238;9.562;2023-06-14T13:21:40;8.53;;;2.60;;
3415;SDS011;1721;51.238;9.562;2023-06-14T13:24:06;5.27;;;2.50;;
3415;SDS011;1721;51.238;9.562;2023-06-14T13:26:32;9.90;;;2.57;;
3415;SDS011;1721;51.238;9.562;2023-06-14T13:28:58;6.47;;;2.83;;
3415;SDS011;1721;51.238;9.562;2023-06-14T13:31:23;7.37;;;3.50;;
3415;SDS011;1721;51.238;9.562;2023-06-14T13:33:49;6.73;;;3.10;;
3415;SDS011;1721;51.238;9.562;2023-06-14T13:36:14;6.27;;;3.00;;
3415;SDS011;1721;51.238;9.562;2023-06-14T13:38:41;6.50;;;2.20;;
3415;SDS011;1721;51.238;9.562;2023-06-14T13:41:06;4.33;;;1.80;;
3415;SDS011;1721;51.238;9.562;2023-06-14T13:43:33;14.47;;;2.50;;
3415;SDS011;1721;51.238;9.562;2023-06-14T13:45:59;5.63;;;2.70;;
3415;SDS011;1721;51.238;9.562;2023-06-14T13:48:25;5.70;;;2.20;;
3415;SDS011;1721;51.238;9.562;2023-06-14T13:50:51;5.70;;;2.20;;
3415;SDS011;1721;51.238;9.562;2023-06-14T13:53:16;6.10;;;2.30;;
3415;SDS011;1721;51.238;9.562;2023-06-14T13:55:42;6.00;;;2.47;;
3415;SDS011;1721;51.238;9.562;2023-06-14T13:58:07;7.10;;;2.37;;
3415;SDS011;1721;51.238;9.562;2023-06-14T14:00:33;7.50;;;3.03;;
3415;SDS011;1721;51.238;9.562;2023-06-14T14:02:59;8.50;;;3.47;;
3415;SDS011;1721;51.238;9.562;2023-06-14T14:05:25;9.53;;;3.77;;
3415;SDS011;1721;51.238;9.562;2023-06-14T14:07:55;10.07;;;2.63;;
3415;SDS011;1721;51.238;9.562;2023-06-14T14:10:21;8.27;;;3.43;;
3415;SDS011;1721;51.238;9.562;2023-06-14T14:12:48;6.77;;;2.70;;
3415;SDS011;1721;51.238;9.562;2023-06-14T14:15:14;6.50;;;2.30;;
3415;SDS011;1721;51.238;9.562;2023-06-14T14:17:40;4.60;;;1.90;;
3415;SDS011;1721;51.238;9.562;2023-06-14T14:20:06;7.03;;;2.87;;
3415;SDS011;1721;51.238;9.562;2023-06-14T14:22:32;10.10;;;3.10;;
3415;SDS011;1721;51.238;9.562;2023-06-14T14:24:58;12.53;;;3.70;;
3415;SDS011;1721;51.238;9.562;2023-06-14T14:27:23;7.73;;;3.30;;
3415;SDS011;1721;51.238;9.562;2023-06-14T14:29:49;7.23;;;3.10;;
3415;SDS011;1721;51.238;9.562;2023-06-14T14:32:15;6.73;;;3.13;;
3415;SDS011;1721;51.238;9.562;2023-06-14T14:34:40;8.00;;;3.33;;
3415;SDS011;1721;51.238;9.562;2023-06-14T14:37:06;10.10;;;4.77;;
3415;SDS011;1721;51.238;9.562;2023-06-14T14:39:32;11.10;;;4.73;;
3415;SDS011;1721;51.238;9.562;2023-06-14T14:41:57;11.60;;;4.23;;
3415;SDS011;1721;51.238;9.562;2023-06-14T14:44:23;11.10;;;3.80;;
3415;SDS011;1721;51.238;9.562;2023-06-14T14:46:48;7.30;;;3.10;;
3415;SDS011;1721;51.238;9.562;2023-06-14T14:49:14;7.50;;;2.17;;
3415;SDS011;1721;51.238;9.562;2023-06-14T14:51:39;8.53;;;2.17;;
3415;SDS011;1721;51.238;9.562;2023-06-14T14:54:05;4.53;;;1.73;;
3415;SDS011;1721;51.238;9.562;2023-06-14T14:56:31;6.03;;;2.30;;
3415;SDS011;1721;51.238;9.562;2023-06-14T14:58:57;6.67;;;1.97;;
3415;SDS011;1721;51.238;9.562;2023-06-14T15:01:22;12.57;;;2.50;;
3415;SDS011;1721;51.238;9.562;2023-06-14T15:03:48;5.00;;;2.23;;
3415;SDS011;1721;51.238;9.562;2023-06-14T15:06:13;7.93;;;2.57;;
3415;SDS011;1721;51.238;9.562;2023-06-14T15:08:39;5.67;;;2.60;;
3415;SDS011;1721;51.238;9.562;2023-06-14T15:11:05;7.30;;;2.03;;
3415;SDS011;1721;51.238;9.562;2023-06-14T15:13:31;4.70;;;2.03;;
3415;SDS011;1721;51.238;9.562;2023-06-14T15:15:57;5.20;;;2.30;;
3415;SDS011;1721;51.238;9.562;2023-06-14T15:18:22;5.83;;;2.40;;
3415;SDS011;1721;51.238;9.562;2023-06-14T15:20:48;4.67;;;1.80;;
3415;SDS011;1721;51.238;9.562;2023-06-14T15:23:14;5.70;;;2.20;;
3415;SDS011;1721;51.238;9.562;2023-06-14T15:25:44;4.30;;;2.00;;
3415;SDS011;1721;51.238;9.562;2023-06-14T15:28:13;4.43;;;1.90;;
3415;SDS011;1721;51.238;9.562;2023-06-14T15:30:39;4.80;;;1.93;;
3415;SDS011;1721;51.238;9.562;2023-06-14T15:33:05;7.37;;;1.80;;
3415;SDS011;1721;51.238;9.562;2023-06-14T15:35:30;5.03;;;2.00;;